createdAt,value
2023-03-18T00:00:35.777Z,16.13
2023-03-18T00:03:03.578Z,15.87
2023-03-18T00:05:31.714Z,16.50
2023-03-18T00:07:59.888Z,21.70
2023-03-18T00:10:27.658Z,15.53
2023-03-18T00:12:55.654Z,13.50
2023-03-18T00:15:23.354Z,14.93
2023-03-18T00:17:52.397Z,12.70
2023-03-18T00:20:30.762Z,16.80
2023-03-18T00:22:59.061Z,13.00
2023-03-18T00:25:28.244Z,15.97
2023-03-18T00:27:56.732Z,16.00
2023-03-18T00:30:25.400Z,16.83
2023-03-18T00:32:54.663Z,12.30
2023-03-18T00:35:22.726Z,13.83
2023-03-18T00:37:50.437Z,14.10
2023-03-18T00:40:20.503Z,14.67
2023-03-18T00:42:57.581Z,13.97
2023-03-18T00:45:25.441Z,12.40
2023-03-18T00:47:54.818Z,13.30
2023-03-18T00:50:22.802Z,12.60
2023-03-18T00:52:50.596Z,15.23
2023-03-18T00:55:18.442Z,14.70
2023-03-18T00:57:46.433Z,11.57
2023-03-18T01:00:16.836Z,14.60
2023-03-18T01:02:45.163Z,14.30
2023-03-18T01:05:14.704Z,16.33
2023-03-18T01:07:43.531Z,11.50
2023-03-18T01:10:12.557Z,13.57
2023-03-18T01:12:42.177Z,12.20
2023-03-18T01:15:11.061Z,18.13
2023-03-18T01:17:39.265Z,11.80
2023-03-18T01:20:07.647Z,13.40
2023-03-18T01:22:36.955Z,15.37
2023-03-18T01:25:05.610Z,11.73
2023-03-18T01:27:37.527Z,13.43
2023-03-18T01:30:07.458Z,15.97
2023-03-18T01:32:35.987Z,11.93
2023-03-18T01:35:03.685Z,11.77
2023-03-18T01:37:32.365Z,17.27
2023-03-18T01:40:14.328Z,16.33
2023-03-18T01:42:43.324Z,12.60
2023-03-18T01:45:12.674Z,17.07
2023-03-18T01:47:44.828Z,15.57
2023-03-18T01:50:14.794Z,15.43
2023-03-18T01:52:46.617Z,13.97
2023-03-18T01:55:17.257Z,11.83
2023-03-18T01:57:45.248Z,14.60
2023-03-18T02:00:15.724Z,16.43
2023-03-18T02:02:47.005Z,13.07
2023-03-18T02:05:17.724Z,12.97
2023-03-18T02:07:46.101Z,15.37
2023-03-18T02:10:15.548Z,15.93
2023-03-18T02:12:46.157Z,14.17
2023-03-18T02:15:22.464Z,14.30
2023-03-18T02:17:53.408Z,12.57
2023-03-18T02:20:28.332Z,12.80
2023-03-18T02:22:58.936Z,12.93
2023-03-18T02:25:34.734Z,12.57
2023-03-18T02:28:07.217Z,12.93
2023-03-18T02:30:37.620Z,12.07
2023-03-18T02:33:07.931Z,12.70
2023-03-18T02:35:36.258Z,11.50
2023-03-18T02:38:04.846Z,12.30
2023-03-18T02:40:34.457Z,14.40
2023-03-18T02:43:18.064Z,11.43
2023-03-18T02:45:51.969Z,13.30
2023-03-18T02:48:21.404Z,11.37
2023-03-18T02:50:50.221Z,11.37
2023-03-18T02:53:17.921Z,13.17
2023-03-18T02:55:46.368Z,16.60
2023-03-18T02:58:14.144Z,13.47
2023-03-18T03:00:44.091Z,11.70
2023-03-18T03:03:12.871Z,14.00
2023-03-18T03:05:40.872Z,11.93
2023-03-18T03:08:10.482Z,11.80
2023-03-18T03:10:42.037Z,12.87
2023-03-18T03:13:11.584Z,11.30
2023-03-18T03:15:41.064Z,13.00
2023-03-18T03:18:11.899Z,13.57
2023-03-18T03:20:39.820Z,12.97
2023-03-18T03:23:08.227Z,12.37
2023-03-18T03:25:36.873Z,14.33
2023-03-18T03:28:05.007Z,16.97
2023-03-18T03:30:33.238Z,13.77
2023-03-18T03:33:01.310Z,14.73
2023-03-18T03:35:30.933Z,12.77
2023-03-18T03:37:59.764Z,19.57
2023-03-18T03:40:27.852Z,15.83
2023-03-18T03:42:55.604Z,12.67
2023-03-18T03:45:23.316Z,15.43
2023-03-18T03:47:51.710Z,14.00
2023-03-18T03:50:19.690Z,18.50
2023-03-18T03:52:49.153Z,14.40
2023-03-18T03:55:35.546Z,12.57
2023-03-18T03:58:03.490Z,15.10
2023-03-18T04:00:33.506Z,14.23
2023-03-18T04:03:01.676Z,18.10
2023-03-18T04:05:29.770Z,12.87
2023-03-18T04:08:01.546Z,13.33
2023-03-18T04:10:37.110Z,13.23
2023-03-18T04:13:06.522Z,15.63
2023-03-18T04:15:34.829Z,13.40
2023-03-18T04:18:09.118Z,13.60
2023-03-18T04:20:39.098Z,14.13
2023-03-18T04:23:19.303Z,16.30
2023-03-18T04:25:47.172Z,14.80
2023-03-18T04:28:16.495Z,13.30
2023-03-18T04:30:44.683Z,16.90
2023-03-18T04:33:17.857Z,13.67
2023-03-18T04:35:46.604Z,18.30
2023-03-18T04:38:15.713Z,15.60
2023-03-18T04:40:46.364Z,12.60
2023-03-18T04:43:14.376Z,17.20
2023-03-18T04:45:43.578Z,14.00
2023-03-18T04:48:13.832Z,22.47
2023-03-18T04:50:43.517Z,14.93
2023-03-18T04:53:15.606Z,13.67
2023-03-18T04:55:45.412Z,14.50
2023-03-18T04:58:15.592Z,13.93
2023-03-18T05:00:52.561Z,12.90
2023-03-18T05:03:30.389Z,13.90
2023-03-18T05:05:59.053Z,12.87
2023-03-18T05:08:36.020Z,12.33
2023-03-18T05:11:05.464Z,14.37
2023-03-18T05:13:36.215Z,12.17
2023-03-18T05:16:04.713Z,14.70
2023-03-18T05:18:33.628Z,17.83
2023-03-18T05:21:03.446Z,15.23
2023-03-18T05:23:31.123Z,15.60
2023-03-18T05:25:59.286Z,13.03
2023-03-18T05:28:30.643Z,15.20
2023-03-18T05:31:14.448Z,14.23
2023-03-18T05:33:43.000Z,11.93
2023-03-18T05:36:13.747Z,14.53
2023-03-18T05:39:01.890Z,15.00
2023-03-18T05:41:30.958Z,12.90
2023-03-18T05:44:00.347Z,18.93
2023-03-18T05:46:29.810Z,10.70
2023-03-18T05:49:13.674Z,18.00
2023-03-18T05:51:49.367Z,19.53
2023-03-18T05:54:28.017Z,18.23
2023-03-18T05:56:56.106Z,12.50
2023-03-18T05:59:25.294Z,16.43
2023-03-18T06:01:57.553Z,13.60
2023-03-18T06:04:27.105Z,16.80
2023-03-18T06:06:55.249Z,12.10
2023-03-18T06:09:23.748Z,15.33
2023-03-18T06:11:52.466Z,13.77
2023-03-18T06:14:20.459Z,12.43
2023-03-18T06:16:50.066Z,11.67
2023-03-18T06:19:21.936Z,17.20
2023-03-18T06:21:50.942Z,18.93
2023-03-18T06:24:18.610Z,18.40
2023-03-18T06:26:46.658Z,20.23
2023-03-18T06:29:15.092Z,17.60
2023-03-18T06:31:42.891Z,14.97
2023-03-18T06:34:15.133Z,16.13
2023-03-18T06:36:44.268Z,16.70
2023-03-18T06:39:17.944Z,13.33
2023-03-18T06:41:46.488Z,15.40
2023-03-18T06:44:42.811Z,11.80
2023-03-18T06:47:17.684Z,14.43
2023-03-18T06:49:54.701Z,13.37
2023-03-18T06:52:29.262Z,15.07
2023-03-18T06:55:02.839Z,13.53
2023-03-18T06:57:30.772Z,14.00
2023-03-18T06:59:58.674Z,11.93
2023-03-18T07:02:28.617Z,13.80
2023-03-18T07:05:01.764Z,15.60
2023-03-18T07:07:30.630Z,13.57
2023-03-18T07:09:59.273Z,16.70
2023-03-18T07:12:28.505Z,21.93
2023-03-18T07:14:56.887Z,15.77
2023-03-18T07:17:24.691Z,15.00
2023-03-18T07:19:52.674Z,18.83
2023-03-18T07:22:22.079Z,14.50
2023-03-18T07:24:49.851Z,14.47
2023-03-18T07:27:17.981Z,21.30
2023-03-18T07:29:46.428Z,16.93
2023-03-18T07:32:14.294Z,17.47
2023-03-18T07:34:43.550Z,17.20
2023-03-18T07:37:11.776Z,16.63
2023-03-18T07:39:40.993Z,14.17
2023-03-18T07:42:09.636Z,16.40
2023-03-18T07:44:37.733Z,28.33
2023-03-18T07:47:06.048Z,11.87
2023-03-18T07:49:33.714Z,13.57
2023-03-18T07:52:02.081Z,18.13
2023-03-18T07:54:30.158Z,16.93
2023-03-18T07:56:59.282Z,14.30
2023-03-18T07:59:27.847Z,12.40
2023-03-18T08:01:55.658Z,16.60
2023-03-18T08:04:23.735Z,13.47
2023-03-18T08:06:51.729Z,13.00
2023-03-18T08:09:21.180Z,22.40
2023-03-18T08:11:48.975Z,18.23
2023-03-18T08:14:18.261Z,13.23
2023-03-18T08:16:46.219Z,14.93
2023-03-18T08:19:13.960Z,18.47
2023-03-18T08:21:42.838Z,15.17
2023-03-18T08:24:10.932Z,18.30
2023-03-18T08:26:38.828Z,17.47
2023-03-18T08:29:06.868Z,16.23
2023-03-18T08:31:35.982Z,16.13
2023-03-18T08:34:03.906Z,13.43
2023-03-18T08:36:32.152Z,16.27
2023-03-18T08:39:00.204Z,19.63
2023-03-18T08:41:28.740Z,16.07
2023-03-18T08:43:57.318Z,13.67
2023-03-18T08:46:25.195Z,20.23
2023-03-18T08:48:56.451Z,15.30
2023-03-18T08:51:24.596Z,13.20
2023-03-18T08:53:52.741Z,14.30
2023-03-18T08:56:20.902Z,14.83
2023-03-18T08:58:49.198Z,14.60
2023-03-18T09:01:17.228Z,17.40
2023-03-18T09:03:46.055Z,15.47
2023-03-18T09:06:15.379Z,15.27
2023-03-18T09:08:43.720Z,13.60
2023-03-18T09:11:12.004Z,16.47
2023-03-18T09:13:39.834Z,14.10
2023-03-18T09:16:10.678Z,13.77
2023-03-18T09:18:39.725Z,18.87
2023-03-18T09:21:08.191Z,19.10
2023-03-18T09:23:37.172Z,16.93
2023-03-18T09:26:07.336Z,19.20
2023-03-18T09:28:35.159Z,15.47
2023-03-18T09:31:04.193Z,11.60
2023-03-18T09:33:33.639Z,14.47
2023-03-18T09:36:01.538Z,16.20
2023-03-18T09:38:29.458Z,11.30
2023-03-18T09:41:04.125Z,16.07
2023-03-18T09:43:37.483Z,16.57
2023-03-18T09:46:09.652Z,14.47
2023-03-18T09:48:43.484Z,15.37
2023-03-18T09:51:18.820Z,14.93
2023-03-18T09:53:49.306Z,13.73
2023-03-18T09:56:20.769Z,13.00
2023-03-18T09:58:51.521Z,13.17
2023-03-18T10:01:21.561Z,13.70
2023-03-18T10:03:51.351Z,18.10
2023-03-18T10:06:20.655Z,18.50
2023-03-18T10:08:53.776Z,15.00
2023-03-18T10:11:25.026Z,14.83
2023-03-18T10:14:10.053Z,14.20
2023-03-18T10:16:41.930Z,20.93
2023-03-18T10:19:10.386Z,12.00
2023-03-18T10:21:43.327Z,17.47
2023-03-18T10:24:20.750Z,11.00
2023-03-18T10:26:50.760Z,14.47
2023-03-18T10:29:34.134Z,13.53
2023-03-18T10:32:07.113Z,18.27
2023-03-18T10:34:40.758Z,14.40
2023-03-18T10:37:17.655Z,14.53
2023-03-18T10:39:48.457Z,11.27
2023-03-18T10:42:21.659Z,14.73
2023-03-18T10:44:49.911Z,12.93
2023-03-18T10:47:20.858Z,13.50
2023-03-18T10:49:51.698Z,13.40
2023-03-18T10:52:21.658Z,15.57
2023-03-18T10:54:52.683Z,38.43
2023-03-18T10:57:23.059Z,16.70
2023-03-18T10:59:52.849Z,18.90
2023-03-18T11:02:23.633Z,15.27
2023-03-18T11:04:54.348Z,17.10
2023-03-18T11:07:25.839Z,15.33
2023-03-18T11:09:54.327Z,22.30
2023-03-18T11:12:28.628Z,15.00
2023-03-18T11:14:57.870Z,15.30
2023-03-18T11:17:28.301Z,13.30
2023-03-18T11:20:05.803Z,12.77
2023-03-18T11:22:33.957Z,12.90
2023-03-18T11:25:02.932Z,15.23
2023-03-18T11:27:37.392Z,15.90
2023-03-18T11:30:11.157Z,16.80
2023-03-18T11:32:51.183Z,14.20
2023-03-18T11:35:20.336Z,18.17
2023-03-18T11:37:48.190Z,14.27
2023-03-18T11:40:34.399Z,15.13
2023-03-18T11:43:13.926Z,15.03
2023-03-18T11:45:45.055Z,13.07
2023-03-18T11:48:18.622Z,17.13
2023-03-18T11:50:55.326Z,17.03
2023-03-18T11:53:25.984Z,14.40
2023-03-18T11:55:59.073Z,13.90
2023-03-18T11:58:38.474Z,12.33
2023-03-18T12:01:12.096Z,13.17
2023-03-18T12:03:54.865Z,14.13
2023-03-18T12:06:23.277Z,16.07
2023-03-18T12:08:57.631Z,15.27
2023-03-18T12:11:32.938Z,13.67
2023-03-18T12:14:07.352Z,13.37
2023-03-18T12:16:48.686Z,13.30
2023-03-18T12:19:34.427Z,13.30
2023-03-18T12:22:08.011Z,12.60
2023-03-18T12:24:51.670Z,9.83
2023-03-18T12:27:24.440Z,11.53
2023-03-18T12:30:10.156Z,12.53
2023-03-18T12:32:41.908Z,13.80
2023-03-18T12:35:23.490Z,14.53
2023-03-18T12:37:59.740Z,12.40
2023-03-18T12:40:31.306Z,13.87
2023-03-18T12:43:13.073Z,10.67
2023-03-18T12:45:44.614Z,14.00
2023-03-18T12:48:13.669Z,16.63
2023-03-18T12:50:43.821Z,10.50
2023-03-18T12:53:16.596Z,11.93
2023-03-18T12:55:46.958Z,14.73
2023-03-18T12:58:17.546Z,17.80
2023-03-18T13:00:50.761Z,10.77
2023-03-18T13:03:26.621Z,15.67
2023-03-18T13:05:57.358Z,13.70
2023-03-18T13:08:42.504Z,14.97
2023-03-18T13:11:13.727Z,16.03
2023-03-18T13:13:44.045Z,21.27
2023-03-18T13:16:15.136Z,14.17
2023-03-18T13:18:45.532Z,13.63
2023-03-18T13:21:15.958Z,12.93
2023-03-18T13:24:14.010Z,11.00
2023-03-18T13:26:52.891Z,9.53
2023-03-18T13:29:27.204Z,10.10
2023-03-18T13:32:02.109Z,12.47
2023-03-18T13:34:48.386Z,10.30
2023-03-18T13:37:33.883Z,10.77
2023-03-18T13:40:20.336Z,13.17
2023-03-18T13:42:50.033Z,11.33
2023-03-18T13:45:25.222Z,12.93
2023-03-18T13:47:59.115Z,14.27
2023-03-18T13:50:35.869Z,11.47
2023-03-18T13:53:04.847Z,10.37
2023-03-18T13:55:34.740Z,11.27
2023-03-18T13:58:23.003Z,13.83
2023-03-18T14:01:09.911Z,10.87
2023-03-18T14:03:53.068Z,11.33
2023-03-18T14:06:24.318Z,10.83
2023-03-18T14:08:52.637Z,10.97
2023-03-18T14:11:45.404Z,12.40
2023-03-18T14:14:28.085Z,11.80
2023-03-18T14:16:58.621Z,13.60
2023-03-18T14:19:31.999Z,13.33
2023-03-18T14:22:08.553Z,12.87
2023-03-18T14:24:36.623Z,13.80
2023-03-18T14:27:17.470Z,14.43
2023-03-18T14:29:46.730Z,18.07
2023-03-18T14:32:32.123Z,15.90
2023-03-18T14:35:00.675Z,13.77
2023-03-18T14:37:32.489Z,11.57
2023-03-18T14:40:01.878Z,16.73
2023-03-18T14:42:45.737Z,13.10
2023-03-18T14:45:20.521Z,12.30
2023-03-18T14:47:50.907Z,14.67
2023-03-18T14:50:35.149Z,15.90
2023-03-18T14:53:06.277Z,15.03
2023-03-18T14:55:35.668Z,16.10
2023-03-18T14:58:04.218Z,25.57
2023-03-18T15:00:34.728Z,18.13
2023-03-18T15:03:04.876Z,12.80
2023-03-18T15:05:35.522Z,10.47
2023-03-18T15:08:03.547Z,14.03
2023-03-18T15:10:33.751Z,13.23
2023-03-18T15:13:07.112Z,10.40
2023-03-18T15:15:35.774Z,13.50
2023-03-18T15:18:05.973Z,14.33
2023-03-18T15:20:36.310Z,14.10
2023-03-18T15:23:08.031Z,17.43
2023-03-18T15:25:39.936Z,12.80
2023-03-18T15:28:07.994Z,10.93
2023-03-18T15:30:35.661Z,16.63
2023-03-18T15:33:07.261Z,13.60
2023-03-18T15:35:36.371Z,12.57
2023-03-18T15:38:10.412Z,10.60
2023-03-18T15:40:47.079Z,11.90
2023-03-18T15:43:19.204Z,12.20
2023-03-18T15:45:48.904Z,11.07
2023-03-18T15:48:23.461Z,12.03
2023-03-18T15:50:55.440Z,11.37
2023-03-18T15:53:24.874Z,11.77
2023-03-18T15:55:55.583Z,10.87
2023-03-18T15:58:27.962Z,11.53
2023-03-18T16:00:58.364Z,11.10
2023-03-18T16:03:27.114Z,12.33
2023-03-18T16:05:55.407Z,10.57
2023-03-18T16:08:24.238Z,11.87
2023-03-18T16:10:53.560Z,15.20
2023-03-18T16:13:24.428Z,19.60
2023-03-18T16:15:52.862Z,12.20
2023-03-18T16:18:21.209Z,13.30
2023-03-18T16:20:50.001Z,12.43
2023-03-18T16:23:18.858Z,12.70
2023-03-18T16:25:48.049Z,11.63
2023-03-18T16:28:17.776Z,12.67
2023-03-18T16:30:48.431Z,11.07
2023-03-18T16:33:18.029Z,11.23
2023-03-18T16:35:47.085Z,15.27
2023-03-18T16:38:16.661Z,12.90
2023-03-18T16:40:45.984Z,10.87
2023-03-18T16:43:21.905Z,16.50
2023-03-18T16:45:51.751Z,14.30
2023-03-18T16:48:21.450Z,16.57
2023-03-18T16:50:49.902Z,19.47
2023-03-18T16:53:23.547Z,11.87
2023-03-18T16:55:52.631Z,10.70
2023-03-18T16:58:25.051Z,12.20
2023-03-18T17:00:54.313Z,27.60
2023-03-18T17:03:22.598Z,15.40
2023-03-18T17:05:53.148Z,14.70
2023-03-18T17:08:21.736Z,21.83
2023-03-18T17:10:51.377Z,19.63
2023-03-18T17:13:23.109Z,19.17
2023-03-18T17:15:51.819Z,17.77
2023-03-18T17:18:21.985Z,18.37
2023-03-18T17:20:50.321Z,19.20
2023-03-18T17:23:19.542Z,25.53
2023-03-18T17:25:50.834Z,19.03
2023-03-18T17:28:25.268Z,19.30
2023-03-18T17:30:53.093Z,17.40
2023-03-18T17:33:24.166Z,16.40
2023-03-18T17:35:53.997Z,27.63
2023-03-18T17:38:22.089Z,23.93
2023-03-18T17:40:50.134Z,29.03
2023-03-18T17:43:19.380Z,26.10
2023-03-18T17:45:47.216Z,21.47
2023-03-18T17:48:17.871Z,21.27
2023-03-18T17:50:47.557Z,16.33
2023-03-18T17:53:23.295Z,19.83
2023-03-18T17:55:51.562Z,19.10
2023-03-18T17:58:20.321Z,20.30
2023-03-18T18:00:48.908Z,19.60
2023-03-18T18:06:17.325Z,24.07
2023-03-18T18:08:45.314Z,20.37
2023-03-18T18:11:16.131Z,29.97
2023-03-18T18:13:44.113Z,28.97
2023-03-18T18:16:12.542Z,26.30
2023-03-18T18:18:40.411Z,35.70
2023-03-18T18:21:14.582Z,34.40
2023-03-18T18:23:45.100Z,27.53
2023-03-18T18:26:14.763Z,24.53
2023-03-18T18:28:43.575Z,21.53
2023-03-18T18:31:12.767Z,24.90
2023-03-18T18:33:41.899Z,29.10
2023-03-18T18:36:13.465Z,21.50
2023-03-18T18:38:41.630Z,24.30
2023-03-18T18:41:11.065Z,24.83
2023-03-18T18:43:38.819Z,22.90
2023-03-18T18:46:11.843Z,23.23
2023-03-18T18:48:40.823Z,21.20
2023-03-18T18:51:15.115Z,24.40
2023-03-18T18:53:43.594Z,22.73
2023-03-18T18:56:15.808Z,26.00
2023-03-18T18:58:43.930Z,26.10
2023-03-18T19:01:13.343Z,26.60
2023-03-18T19:03:41.772Z,26.93
2023-03-18T19:06:19.201Z,31.20
2023-03-18T19:08:47.213Z,26.53
2023-03-18T19:11:16.282Z,33.97
2023-03-18T19:13:45.552Z,33.37
2023-03-18T19:16:18.890Z,30.30
2023-03-18T19:18:47.069Z,32.57
2023-03-18T19:21:14.852Z,30.70
2023-03-18T19:23:42.454Z,30.30
2023-03-18T19:26:12.598Z,32.90
2023-03-18T19:29:01.352Z,36.57
2023-03-18T19:31:31.529Z,27.70
2023-03-18T19:34:00.111Z,31.20
2023-03-18T19:36:29.290Z,31.53
2023-03-18T19:39:02.269Z,45.20
2023-03-18T19:41:54.093Z,32.93
2023-03-18T19:44:26.831Z,30.43
2023-03-18T19:46:55.275Z,22.87
2023-03-18T19:49:25.176Z,27.90
2023-03-18T19:51:53.499Z,30.27
2023-03-18T19:54:24.359Z,30.57
2023-03-18T19:56:52.567Z,36.90
2023-03-18T19:59:21.621Z,33.00
2023-03-18T20:01:51.261Z,57.67
2023-03-18T20:04:20.777Z,49.90
2023-03-18T20:06:49.981Z,66.97
2023-03-18T20:09:18.669Z,47.70
2023-03-18T20:11:46.799Z,44.17
2023-03-18T20:14:21.168Z,39.90
2023-03-18T20:16:49.437Z,34.13
2023-03-18T20:19:18.500Z,35.13
2023-03-18T20:21:46.812Z,27.10
2023-03-18T20:24:16.276Z,35.03
2023-03-18T20:26:44.159Z,39.43
2023-03-18T20:29:16.790Z,24.50
2023-03-18T20:31:45.813Z,30.93
2023-03-18T20:34:13.938Z,25.20
2023-03-18T20:36:45.065Z,34.20
2023-03-18T20:39:18.507Z,26.80
2023-03-18T20:41:46.848Z,22.37
2023-03-18T20:44:14.877Z,18.70
2023-03-18T20:46:42.922Z,24.80
2023-03-18T20:49:11.196Z,31.33
2023-03-18T20:51:41.403Z,38.23
2023-03-18T20:54:18.629Z,36.07
2023-03-18T20:56:46.833Z,26.17
2023-03-18T20:59:14.862Z,20.67
2023-03-18T21:01:42.810Z,31.87
2023-03-18T21:04:12.201Z,32.53
2023-03-18T21:06:39.912Z,25.00
2023-03-18T21:09:10.150Z,29.57
2023-03-18T21:11:39.665Z,26.23
2023-03-18T21:14:07.369Z,36.90
2023-03-18T21:16:37.710Z,47.80
2023-03-18T21:19:06.119Z,22.63
2023-03-18T21:21:35.929Z,28.30
2023-03-18T21:24:04.254Z,23.70
2023-03-18T21:26:33.021Z,33.70
2023-03-18T21:29:02.392Z,23.17
2023-03-18T21:31:31.869Z,26.87
2023-03-18T21:34:00.462Z,59.77
2023-03-18T21:36:28.125Z,47.03
2023-03-18T21:38:56.262Z,23.80
2023-03-18T21:41:25.259Z,23.10
2023-03-18T21:43:52.966Z,19.67
2023-03-18T21:46:24.838Z,23.77
2023-03-18T21:48:53.337Z,25.63
2023-03-18T21:51:37.634Z,23.90
2023-03-18T21:54:07.198Z,28.50
2023-03-18T21:56:34.930Z,37.03
2023-03-18T21:59:02.917Z,27.13
2023-03-18T22:01:32.851Z,36.10
2023-03-18T22:04:04.514Z,32.60
2023-03-18T22:06:32.610Z,31.47
2023-03-18T22:09:00.511Z,35.00
2023-03-18T22:11:28.699Z,29.43
2023-03-18T22:13:56.548Z,32.60
2023-03-18T22:16:24.269Z,33.20
2023-03-18T22:18:53.406Z,28.43
2023-03-18T22:21:24.478Z,24.90
2023-03-18T22:23:52.281Z,22.80
2023-03-18T22:26:21.457Z,30.90
2023-03-18T22:28:50.778Z,30.70
2023-03-18T22:31:20.031Z,29.07
2023-03-18T22:33:48.312Z,26.30
2023-03-18T22:36:17.886Z,42.90
2023-03-18T22:38:46.209Z,59.97
2023-03-18T22:41:18.143Z,32.90
2023-03-18T22:43:46.848Z,30.63
2023-03-18T22:46:14.604Z,23.90
2023-03-18T22:48:43.233Z,31.93
2023-03-18T22:51:19.127Z,27.73
2023-03-18T22:53:50.376Z,27.30
2023-03-18T22:56:18.758Z,32.53
2023-03-18T22:58:46.616Z,26.87
2023-03-18T23:01:16.353Z,26.73
2023-03-18T23:03:46.439Z,52.63
2023-03-18T23:06:15.223Z,28.47
2023-03-18T23:08:42.977Z,32.93
2023-03-18T23:11:12.860Z,31.80
2023-03-18T23:13:41.517Z,33.20
2023-03-18T23:16:12.843Z,29.60
2023-03-18T23:18:40.609Z,29.10
2023-03-18T23:21:08.261Z,25.10
2023-03-18T23:23:36.175Z,28.87
2023-03-18T23:26:04.020Z,27.87
2023-03-18T23:28:43.659Z,33.47
2023-03-18T23:31:12.699Z,31.60
2023-03-18T23:33:40.741Z,33.50
2023-03-18T23:36:09.257Z,24.30
2023-03-18T23:38:37.801Z,23.50
2023-03-18T23:41:06.153Z,24.20
2023-03-18T23:43:35.499Z,20.63
2023-03-18T23:46:03.889Z,23.40
2023-03-18T23:48:32.441Z,21.80
2023-03-18T23:51:00.604Z,23.40
2023-03-18T23:53:28.773Z,21.10
2023-03-18T23:55:56.688Z,27.40
2023-03-18T23:58:24.580Z,23.83
